createdAt,value
2022-12-31T00:00:49.000Z,999.4
2022-12-31T00:02:01.000Z,999.3
2022-12-31T00:03:13.000Z,999.3
2022-12-31T00:04:25.000Z,999.3
2022-12-31T00:05:37.000Z,999.4
2022-12-31T00:06:50.000Z,999.4
2022-12-31T00:08:02.000Z,999.5
2022-12-31T00:09:14.000Z,999.4
2022-12-31T00:10:26.000Z,999.5
2022-12-31T00:11:38.000Z,999.6
2022-12-31T00:14:02.000Z,999.6
2022-12-31T00:15:14.000Z,999.7
2022-12-31T00:16:26.000Z,999.8
2022-12-31T00:17:38.000Z,999.8
2022-12-31T00:18:51.000Z,999.8
2022-12-31T00:20:03.000Z,999.8
2022-12-31T00:20:06.000Z,999.7
2022-12-31T00:22:27.000Z,999.8
2022-12-31T00:23:39.000Z,999.8
2022-12-31T00:24:51.000Z,999.8
2022-12-31T00:26:04.000Z,999.8
2022-12-31T00:27:16.000Z,999.8
2022-12-31T00:28:32.026Z,999.8
2022-12-31T00:29:39.000Z,999.8
2022-12-31T00:30:51.000Z,999.8
2022-12-31T00:32:04.000Z,999.8
2022-12-31T00:33:16.000Z,999.8
2022-12-31T00:34:28.000Z,999.7
2022-12-31T00:35:40.000Z,999.8
2022-12-31T00:35:44.147Z,999.8
2022-12-31T00:36:52.000Z,999.7
2022-12-31T00:40:29.000Z,999.8
2022-12-31T00:41:41.000Z,999.8
2022-12-31T00:42:53.000Z,999.8
2022-12-31T00:44:04.000Z,999.8
2022-12-31T00:45:21.636Z,999.8
2022-12-31T00:46:29.000Z,999.7
2022-12-31T00:47:41.000Z,999.8
2022-12-31T00:48:53.000Z,999.8
2022-12-31T00:50:05.000Z,999.8
2022-12-31T00:51:18.000Z,999.8
2022-12-31T00:52:30.000Z,999.7
2022-12-31T00:52:33.765Z,999.8
2022-12-31T00:53:42.000Z,999.7
2022-12-31T00:54:54.000Z,999.7
2022-12-31T00:56:06.000Z,999.7
2022-12-31T00:57:18.000Z,999.7
2022-12-31T00:58:31.000Z,999.8
2022-12-31T00:59:42.000Z,999.8
2022-12-31T01:02:06.000Z,999.9
2022-12-31T01:03:18.000Z,999.9
2022-12-31T01:04:31.000Z,999.9
2022-12-31T01:05:43.000Z,1000
2022-12-31T01:06:55.000Z,1000.1
2022-12-31T01:08:07.000Z,1000.1
2022-12-31T01:08:11.220Z,999.8
2022-12-31T01:09:19.000Z,1000.1
2022-12-31T01:10:32.000Z,1000.1
2022-12-31T01:11:44.000Z,1000.1
2022-12-31T01:12:56.000Z,1000.1
2022-12-31T01:14:08.000Z,1000.2
2022-12-31T01:15:19.000Z,1000.2
2022-12-31T01:16:31.000Z,1000.2
2022-12-31T01:17:44.000Z,1000.3
2022-12-31T01:18:56.000Z,1000.2
2022-12-31T01:20:08.000Z,1000.3
2022-12-31T01:21:20.000Z,1000.2
2022-12-31T01:22:32.000Z,1000.2
2022-12-31T01:23:45.000Z,1000.2
2022-12-31T01:24:57.000Z,1000.3
2022-12-31T01:26:09.000Z,1000.2
2022-12-31T01:27:21.000Z,1000.3
2022-12-31T01:29:46.000Z,1000.3
2022-12-31T01:30:57.000Z,1000.3
2022-12-31T01:32:09.000Z,1000.3
2022-12-31T01:33:21.000Z,1000.3
2022-12-31T01:34:33.000Z,1000.3
2022-12-31T01:35:45.000Z,1000.3
2022-12-31T01:35:50.502Z,1000.3
2022-12-31T01:36:58.000Z,1000.3
2022-12-31T01:38:10.000Z,1000.3
2022-12-31T01:39:22.000Z,1000.4
2022-12-31T01:40:34.000Z,1000.3
2022-12-31T01:41:46.000Z,1000.3
2022-12-31T01:42:59.000Z,1000.1
2022-12-31T01:44:11.000Z,1000.1
2022-12-31T01:45:23.000Z,1000
2022-12-31T01:46:35.000Z,1000
2022-12-31T01:47:47.000Z,1000
2022-12-31T01:49:00.000Z,1000
2022-12-31T01:50:12.000Z,1000
2022-12-31T01:51:24.000Z,1000
2022-12-31T01:52:36.000Z,1000.1
2022-12-31T01:53:48.000Z,1000.1
2022-12-31T01:55:01.000Z,1000.1
2022-12-31T01:56:13.000Z,1000
2022-12-31T01:57:25.000Z,1000.1
2022-12-31T01:58:37.000Z,1000.2
2022-12-31T01:59:49.000Z,1000.2
2022-12-31T02:01:01.000Z,1000.1
2022-12-31T02:02:14.000Z,1000.1
2022-12-31T02:03:25.000Z,1000.2
2022-12-31T02:04:37.000Z,1000.2
2022-12-31T02:05:49.000Z,1000.2
2022-12-31T02:07:01.000Z,1000.1
2022-12-31T02:08:14.000Z,1000.1
2022-12-31T02:09:26.000Z,1000
2022-12-31T02:10:38.000Z,1000
2022-12-31T02:11:50.000Z,1000
2022-12-31T02:13:02.000Z,1000.2
2022-12-31T02:14:15.000Z,1000.1
2022-12-31T02:15:27.000Z,1000.1
2022-12-31T02:16:39.000Z,1000
2022-12-31T02:17:51.000Z,1000
2022-12-31T02:19:02.000Z,1000
2022-12-31T02:20:14.000Z,1000.2
2022-12-31T02:21:27.000Z,1000.1
2022-12-31T02:22:38.000Z,1000.1
2022-12-31T02:23:50.000Z,1000.2
2022-12-31T02:25:02.000Z,1000.1
2022-12-31T02:26:14.000Z,1000.2
2022-12-31T02:27:27.000Z,1000.2
2022-12-31T02:28:39.000Z,1000.2
2022-12-31T02:29:51.000Z,1000.3
2022-12-31T02:31:03.000Z,1000.3
2022-12-31T02:32:15.000Z,1000.2
2022-12-31T02:33:28.000Z,1000.2
2022-12-31T02:34:40.000Z,1000.2
2022-12-31T02:35:52.000Z,1000
2022-12-31T02:37:04.000Z,1000.1
2022-12-31T02:38:15.000Z,1000.1
2022-12-31T02:39:27.000Z,1000
2022-12-31T02:40:40.000Z,1000
2022-12-31T02:41:52.000Z,999.9
2022-12-31T02:44:16.000Z,999.9
2022-12-31T02:45:28.000Z,999.9
2022-12-31T02:46:41.000Z,999.9
2022-12-31T02:47:53.000Z,1000
2022-12-31T02:49:05.000Z,999.9
2022-12-31T02:50:17.000Z,999.8
2022-12-31T02:50:21.254Z,999.9
2022-12-31T02:51:29.000Z,999.8
2022-12-31T02:52:41.000Z,999.8
2022-12-31T02:53:53.000Z,999.8
2022-12-31T02:55:05.000Z,999.8
2022-12-31T02:56:17.000Z,999.7
2022-12-31T02:57:29.000Z,999.7
2022-12-31T02:58:41.000Z,999.7
2022-12-31T02:59:54.000Z,999.7
2022-12-31T03:01:06.000Z,999.7
2022-12-31T03:02:18.000Z,999.7
2022-12-31T03:03:30.000Z,999.7
2022-12-31T03:04:42.000Z,999.7
2022-12-31T03:05:55.000Z,999.6
2022-12-31T03:07:07.000Z,999.6
2022-12-31T03:08:19.000Z,999.6
2022-12-31T03:09:31.000Z,999.6
2022-12-31T03:10:42.000Z,999.7
2022-12-31T03:11:54.000Z,999.6
2022-12-31T03:13:07.000Z,999.6
2022-12-31T03:14:19.000Z,999.7
2022-12-31T03:15:31.000Z,999.6
2022-12-31T03:16:43.000Z,999.6
2022-12-31T03:17:55.000Z,999.6
2022-12-31T03:19:08.000Z,999.6
2022-12-31T03:20:20.000Z,999.5
2022-12-31T03:21:32.000Z,999.5
2022-12-31T03:22:44.000Z,999.5
2022-12-31T03:23:56.000Z,999.4
2022-12-31T03:25:09.000Z,999.5
2022-12-31T03:26:21.000Z,999.4
2022-12-31T03:27:32.000Z,999.5
2022-12-31T03:28:44.000Z,999.5
2022-12-31T03:29:56.000Z,999.5
2022-12-31T03:31:08.000Z,999.4
2022-12-31T03:32:21.000Z,999.3
2022-12-31T03:33:33.000Z,999.3
2022-12-31T03:34:45.000Z,999.3
2022-12-31T03:35:57.000Z,999.3
2022-12-31T03:37:09.000Z,999.3
2022-12-31T03:38:22.000Z,999.3
2022-12-31T03:39:34.000Z,999.2
2022-12-31T03:40:46.000Z,999.2
2022-12-31T03:41:58.000Z,999.2
2022-12-31T03:43:10.000Z,999.2
2022-12-31T03:44:22.000Z,999.1
2022-12-31T03:45:34.000Z,999.1
2022-12-31T03:46:46.000Z,999.1
2022-12-31T03:47:58.000Z,999.2
2022-12-31T03:49:10.000Z,999.2
2022-12-31T03:50:22.000Z,999.2
2022-12-31T03:51:35.000Z,999.1
2022-12-31T03:52:47.000Z,999
2022-12-31T03:53:59.000Z,999.1
2022-12-31T03:55:11.000Z,999
2022-12-31T03:56:23.000Z,999
2022-12-31T03:57:36.000Z,999
2022-12-31T03:58:48.000Z,999
2022-12-31T03:59:59.000Z,999
2022-12-31T04:01:11.000Z,999.1
2022-12-31T04:02:23.000Z,999.1
2022-12-31T04:03:36.000Z,999.1
2022-12-31T04:04:48.000Z,999.2
2022-12-31T04:06:00.000Z,999.1
2022-12-31T04:07:12.000Z,999.2
2022-12-31T04:08:24.000Z,999.1
2022-12-31T04:09:36.000Z,999.1
2022-12-31T04:10:49.000Z,999.1
2022-12-31T04:12:01.000Z,999.2
2022-12-31T04:13:13.000Z,999.3
2022-12-31T04:14:25.000Z,999.3
2022-12-31T04:15:36.000Z,999.3
2022-12-31T04:16:49.000Z,999.2
2022-12-31T04:18:01.000Z,999.2
2022-12-31T04:19:13.000Z,999.1
2022-12-31T04:20:25.000Z,999.1
2022-12-31T04:21:37.000Z,999.1
2022-12-31T04:22:49.000Z,999.2
2022-12-31T04:24:02.000Z,999.1
2022-12-31T04:25:14.000Z,999.2
2022-12-31T04:26:26.000Z,999.2
2022-12-31T04:27:38.000Z,999
2022-12-31T04:28:50.000Z,999.1
2022-12-31T04:30:03.000Z,999
2022-12-31T04:31:14.000Z,999.1
2022-12-31T04:32:26.000Z,999.1
2022-12-31T04:33:38.000Z,999.1
2022-12-31T04:34:50.000Z,999
2022-12-31T04:36:03.000Z,999.1
2022-12-31T04:37:15.000Z,999.1
2022-12-31T04:38:27.000Z,999.2
2022-12-31T04:40:51.000Z,999.2
2022-12-31T04:42:03.000Z,999.2
2022-12-31T04:43:16.000Z,999.2
2022-12-31T04:44:28.000Z,999.2
2022-12-31T04:45:40.000Z,999.2
2022-12-31T04:46:51.000Z,999.1
2022-12-31T04:46:56.411Z,999.2
2022-12-31T04:48:03.000Z,999
2022-12-31T04:49:16.000Z,999.1
2022-12-31T04:50:28.000Z,999.1
2022-12-31T04:51:40.000Z,999
2022-12-31T04:52:52.000Z,999.1
2022-12-31T04:54:04.000Z,999.1
2022-12-31T04:55:17.000Z,999.1
2022-12-31T04:56:29.000Z,999.1
2022-12-31T04:57:41.000Z,999.1
2022-12-31T04:58:53.000Z,999
2022-12-31T05:00:05.000Z,999.1
2022-12-31T05:01:17.000Z,998.9
2022-12-31T05:02:29.000Z,998.9
2022-12-31T05:03:41.000Z,998.9
2022-12-31T05:04:53.000Z,998.9
2022-12-31T05:06:05.000Z,998.9
2022-12-31T05:07:17.000Z,998.9
2022-12-31T05:09:42.000Z,998.9
2022-12-31T05:10:54.000Z,998.9
2022-12-31T05:12:06.000Z,999
2022-12-31T05:13:18.000Z,998.9
2022-12-31T05:14:31.000Z,998.9
2022-12-31T05:15:43.000Z,998.9
2022-12-31T05:15:46.912Z,998.9
2022-12-31T05:16:55.000Z,998.8
2022-12-31T05:18:06.000Z,998.9
2022-12-31T05:19:18.000Z,998.8
2022-12-31T05:20:30.000Z,998.8
2022-12-31T05:21:43.000Z,998.8
2022-12-31T05:22:55.000Z,998.8
2022-12-31T05:24:07.000Z,998.8
2022-12-31T05:25:19.000Z,998.7
2022-12-31T05:26:31.000Z,998.8
2022-12-31T05:27:44.000Z,998.8
2022-12-31T05:28:56.000Z,998.8
2022-12-31T05:30:08.000Z,998.8
2022-12-31T05:31:20.000Z,998.7
2022-12-31T05:32:32.000Z,998.8
2022-12-31T05:33:44.000Z,998.7
2022-12-31T05:34:56.000Z,998.7
2022-12-31T05:36:08.000Z,998.7
2022-12-31T05:37:20.000Z,998.8
2022-12-31T05:38:32.000Z,998.8
2022-12-31T05:39:44.000Z,998.8
2022-12-31T05:40:57.000Z,998.8
2022-12-31T05:42:09.000Z,998.7
2022-12-31T05:43:21.000Z,998.8
2022-12-31T05:45:45.000Z,998.8
2022-12-31T05:46:58.000Z,998.7
2022-12-31T05:48:10.000Z,998.8
2022-12-31T05:49:22.000Z,998.7
2022-12-31T05:50:33.000Z,998.6
2022-12-31T05:51:45.000Z,998.7
2022-12-31T05:51:50.543Z,998.8
2022-12-31T05:52:58.000Z,998.6
2022-12-31T05:54:10.000Z,998.6
2022-12-31T05:55:22.000Z,998.6
2022-12-31T05:56:34.000Z,998.5
2022-12-31T05:58:58.000Z,998.5
2022-12-31T06:00:11.000Z,998.6
2022-12-31T06:01:23.000Z,998.5
2022-12-31T06:02:35.000Z,998.5
2022-12-31T06:03:47.000Z,998.5
2022-12-31T06:04:59.000Z,998.6
2022-12-31T06:05:03.613Z,998.5
2022-12-31T06:06:11.000Z,998.6
2022-12-31T06:07:23.000Z,998.6
2022-12-31T06:08:35.000Z,998.7
2022-12-31T06:09:47.000Z,998.6
2022-12-31T06:10:59.000Z,998.7
2022-12-31T06:12:11.000Z,998.7
2022-12-31T06:13:24.000Z,998.7
2022-12-31T06:14:36.000Z,998.8
2022-12-31T06:15:48.000Z,998.7
2022-12-31T06:17:00.000Z,998.7
2022-12-31T06:18:12.000Z,998.7
2022-12-31T06:19:25.000Z,998.8
2022-12-31T06:20:37.000Z,998.8
2022-12-31T06:21:48.000Z,998.8
2022-12-31T06:23:00.000Z,998.8
2022-12-31T06:24:11.000Z,998.8
2022-12-31T06:25:24.000Z,998.8
2022-12-31T06:26:36.000Z,998.8
2022-12-31T06:27:48.000Z,998.7
2022-12-31T06:29:00.000Z,998.7
2022-12-31T06:30:12.000Z,998.7
2022-12-31T06:31:24.000Z,998.8
2022-12-31T06:32:37.000Z,998.7
2022-12-31T06:33:49.000Z,998.8
2022-12-31T06:35:01.000Z,998.8
2022-12-31T06:36:13.000Z,998.9
2022-12-31T06:37:25.000Z,998.8
2022-12-31T06:38:38.000Z,998.8
2022-12-31T06:39:49.000Z,998.8
2022-12-31T06:41:01.000Z,998.8
2022-12-31T06:42:13.000Z,998.9
2022-12-31T06:43:25.000Z,998.7
2022-12-31T06:44:38.000Z,998.9
2022-12-31T06:45:50.000Z,998.9
2022-12-31T06:47:02.000Z,998.9
2022-12-31T06:48:14.000Z,998.9
2022-12-31T06:49:26.000Z,998.9
2022-12-31T06:50:38.000Z,999
2022-12-31T06:51:51.000Z,999.1
2022-12-31T06:53:03.000Z,999.1
2022-12-31T06:54:15.000Z,999
2022-12-31T06:55:26.000Z,999.1
2022-12-31T06:56:38.000Z,999
2022-12-31T06:57:51.000Z,999
2022-12-31T06:59:03.000Z,999.1
2022-12-31T07:00:15.000Z,999.2
2022-12-31T07:01:27.000Z,999.2
2022-12-31T07:02:39.000Z,999.2
2022-12-31T07:03:52.000Z,999.1
2022-12-31T07:06:16.000Z,999.3
2022-12-31T07:07:28.000Z,999.3
2022-12-31T07:08:40.000Z,999.3
2022-12-31T07:09:52.000Z,999.4
2022-12-31T07:11:04.000Z,999.5
2022-12-31T07:12:16.000Z,999.4
2022-12-31T07:12:21.128Z,999.2
2022-12-31T07:13:28.000Z,999.3
2022-12-31T07:14:40.000Z,999.5
2022-12-31T07:15:52.000Z,999.5
2022-12-31T07:17:05.000Z,999.5
2022-12-31T07:18:17.000Z,999.5
2022-12-31T07:19:29.000Z,999.4
2022-12-31T07:20:41.000Z,999.4
2022-12-31T07:21:53.000Z,999.5
2022-12-31T07:23:06.000Z,999.6
2022-12-31T07:24:18.000Z,999.6
2022-12-31T07:25:30.000Z,999.6
2022-12-31T07:26:41.000Z,999.6
2022-12-31T07:27:53.000Z,999.6
2022-12-31T07:29:05.000Z,999.6
2022-12-31T07:33:54.000Z,999.5
2022-12-31T07:35:06.000Z,999.6
2022-12-31T07:36:19.000Z,999.6
2022-12-31T07:37:31.000Z,999.7
2022-12-31T07:37:35.062Z,999.6
2022-12-31T07:38:43.000Z,999.6
2022-12-31T07:38:47.252Z,999.5
2022-12-31T07:39:59.432Z,999.6
2022-12-31T07:41:07.000Z,999.7
2022-12-31T07:42:19.000Z,999.6
2022-12-31T07:43:31.000Z,999.7
2022-12-31T07:44:43.000Z,999.8
2022-12-31T07:45:55.000Z,999.8
2022-12-31T07:47:07.000Z,999.8
2022-12-31T07:47:12.544Z,999.7
2022-12-31T07:48:19.000Z,999.8
2022-12-31T07:49:32.000Z,999.8
2022-12-31T07:50:44.000Z,999.9
2022-12-31T07:51:56.000Z,999.9
2022-12-31T07:53:08.000Z,999.9
2022-12-31T07:54:20.000Z,1000
2022-12-31T07:55:33.000Z,1000
2022-12-31T07:56:45.000Z,1000
2022-12-31T07:57:56.000Z,1000
2022-12-31T07:59:08.000Z,999.9
2022-12-31T08:00:20.000Z,999.9
2022-12-31T08:01:32.000Z,999.9
2022-12-31T08:02:45.000Z,999.9
2022-12-31T08:03:57.000Z,999.8
2022-12-31T08:05:09.000Z,999.9
2022-12-31T08:06:21.000Z,1000
2022-12-31T08:07:33.000Z,1000
2022-12-31T08:08:46.000Z,1000
2022-12-31T08:09:58.000Z,1000
2022-12-31T08:11:10.000Z,1000
2022-12-31T08:12:22.000Z,1000.1
2022-12-31T08:13:33.000Z,1000
2022-12-31T08:14:46.000Z,1000.1
2022-12-31T08:15:58.000Z,1000.1
2022-12-31T08:17:10.000Z,1000
2022-12-31T08:18:22.000Z,1000.1
2022-12-31T08:19:34.000Z,1000.1
2022-12-31T08:20:46.000Z,1000.1
2022-12-31T08:21:59.000Z,1000
2022-12-31T08:23:11.000Z,1000
2022-12-31T08:24:23.000Z,1000.1
2022-12-31T08:25:35.000Z,1000.1
2022-12-31T08:26:47.000Z,1000.1
2022-12-31T08:28:00.000Z,1000.2
2022-12-31T08:29:11.000Z,1000.1
2022-12-31T08:30:23.000Z,1000.2
2022-12-31T08:32:47.000Z,1000.2
2022-12-31T08:34:00.000Z,1000.1
2022-12-31T08:35:12.000Z,1000.2
2022-12-31T08:36:24.000Z,1000.2
2022-12-31T08:37:36.000Z,1000.2
2022-12-31T08:38:48.000Z,1000.2
2022-12-31T08:38:52.616Z,1000.2
2022-12-31T08:40:00.000Z,1000.1
2022-12-31T08:41:13.000Z,1000.1
2022-12-31T08:42:25.000Z,1000.2
2022-12-31T08:43:37.000Z,1000.1
2022-12-31T08:44:48.000Z,1000.1
2022-12-31T08:46:00.000Z,1000.3
2022-12-31T08:47:13.000Z,1000.2
2022-12-31T08:48:25.000Z,1000.3
2022-12-31T08:50:49.000Z,1000.3
2022-12-31T08:52:01.000Z,1000.2
2022-12-31T08:53:14.000Z,1000.3
2022-12-31T08:54:26.000Z,1000.3
2022-12-31T08:55:38.000Z,1000.2
2022-12-31T08:56:50.000Z,1000.2
2022-12-31T08:56:54.432Z,1000.3
2022-12-31T08:58:02.000Z,1000.2
2022-12-31T08:59:14.000Z,1000.3
2022-12-31T09:00:26.000Z,1000.2
2022-12-31T09:02:50.000Z,1000.3
2022-12-31T09:04:02.000Z,1000.3
2022-12-31T09:06:27.000Z,1000.3
2022-12-31T09:07:39.000Z,1000.2
2022-12-31T09:08:51.000Z,1000.4
2022-12-31T09:08:55.326Z,1000.3
2022-12-31T09:10:03.000Z,1000.4
2022-12-31T09:11:15.000Z,1000.4
2022-12-31T09:12:28.000Z,1000.4
2022-12-31T09:12:31.867Z,1000.3
2022-12-31T09:13:40.000Z,1000.3
2022-12-31T09:14:52.000Z,1000.3
2022-12-31T09:17:15.000Z,1000.3
2022-12-31T09:18:27.000Z,1000.3
2022-12-31T09:19:40.000Z,1000.4
2022-12-31T09:20:52.000Z,1000.4
2022-12-31T09:22:04.000Z,1000.3
2022-12-31T09:23:20.000Z,1000.3
2022-12-31T09:24:28.000Z,1000.5
2022-12-31T09:25:41.000Z,1000.5
2022-12-31T09:26:53.000Z,1000.5
2022-12-31T09:28:05.000Z,1000.5
2022-12-31T09:29:17.000Z,1000.5
2022-12-31T09:30:29.000Z,1000.5
2022-12-31T09:30:33.000Z,1000.5
2022-12-31T09:31:41.000Z,1000.6
2022-12-31T09:32:53.000Z,1000.7
2022-12-31T09:34:05.000Z,1000.5
2022-12-31T09:35:17.000Z,1000.5
2022-12-31T09:36:29.000Z,1000.5
2022-12-31T09:37:41.000Z,1000.6
2022-12-31T09:38:54.000Z,1000.6
2022-12-31T09:40:06.000Z,1000.6
2022-12-31T09:41:18.000Z,1000.6
2022-12-31T09:42:30.000Z,1000.6
2022-12-31T09:43:42.000Z,1000.6
2022-12-31T09:44:55.000Z,1000.6
2022-12-31T09:46:07.000Z,1000.7
2022-12-31T09:47:18.000Z,1000.6
2022-12-31T09:48:30.000Z,1000.6
2022-12-31T09:49:42.000Z,1000.5
2022-12-31T09:50:54.000Z,1000.6
2022-12-31T09:52:07.000Z,1000.6
2022-12-31T09:53:19.000Z,1000.6
2022-12-31T09:54:31.000Z,1000.5
2022-12-31T09:56:55.000Z,1000.6
2022-12-31T09:58:08.000Z,1000.5
2022-12-31T09:59:20.000Z,1000.5
2022-12-31T10:00:32.000Z,1000.5
2022-12-31T10:01:44.000Z,1000.6
2022-12-31T10:02:55.000Z,1000.5
2022-12-31T10:03:00.000Z,1000.6
2022-12-31T10:05:20.000Z,1000.6
2022-12-31T10:06:32.000Z,1000.6
2022-12-31T10:07:44.000Z,1000.6
2022-12-31T10:08:56.000Z,1000.6
2022-12-31T10:10:08.000Z,1000.6
2022-12-31T10:11:21.000Z,1000.5
2022-12-31T10:11:25.047Z,1000.5
2022-12-31T10:12:33.000Z,1000.5
2022-12-31T10:13:45.000Z,1000.5
2022-12-31T10:14:57.000Z,1000.6
2022-12-31T10:16:09.000Z,1000.6
2022-12-31T10:17:22.000Z,1000.6
2022-12-31T10:18:33.000Z,1000.7
2022-12-31T10:19:45.000Z,1000.7
2022-12-31T10:20:57.000Z,1000.8
2022-12-31T10:22:09.000Z,1000.7
2022-12-31T10:23:22.000Z,1000.7
2022-12-31T10:24:34.000Z,1000.7
2022-12-31T10:25:45.000Z,1000.7
2022-12-31T10:26:57.000Z,1000.7
2022-12-31T10:28:09.000Z,1000.7
2022-12-31T10:29:21.000Z,1000.8
2022-12-31T10:30:34.000Z,1000.9
2022-12-31T10:31:46.000Z,1000.8
2022-12-31T10:32:58.000Z,1000.8
2022-12-31T10:34:10.000Z,1000.8
2022-12-31T10:35:22.000Z,1000.7
2022-12-31T10:36:35.000Z,1000.8
2022-12-31T10:37:47.000Z,1000.6
2022-12-31T10:38:59.000Z,1000.8
2022-12-31T10:40:11.000Z,1000.7
2022-12-31T10:41:22.000Z,1000.8
2022-12-31T10:42:34.000Z,1000.8
2022-12-31T10:43:47.000Z,1000.9
2022-12-31T10:44:59.000Z,1000.9
2022-12-31T10:46:11.000Z,1000.9
2022-12-31T10:47:23.000Z,1000.9
2022-12-31T10:48:35.000Z,1001
2022-12-31T10:49:48.000Z,1000.9
2022-12-31T10:51:00.000Z,1000.9
2022-12-31T10:52:12.000Z,1000.8
2022-12-31T10:53:24.000Z,1000.9
2022-12-31T10:54:36.000Z,1000.9
2022-12-31T10:55:49.000Z,1000.9
2022-12-31T10:57:00.000Z,1000.9
2022-12-31T10:58:12.000Z,1000.8
2022-12-31T10:59:24.000Z,1000.9
2022-12-31T11:00:36.000Z,1000.8
2022-12-31T11:01:48.000Z,1000.9
2022-12-31T11:03:01.000Z,1001
2022-12-31T11:04:13.000Z,1001
2022-12-31T11:05:25.000Z,1000.9
2022-12-31T11:06:37.000Z,1001
2022-12-31T11:07:49.000Z,1001
2022-12-31T11:09:02.000Z,1001
2022-12-31T11:10:14.000Z,1000.9
2022-12-31T11:11:26.000Z,1000.9
2022-12-31T11:12:37.000Z,1000.8
2022-12-31T11:13:49.000Z,1000.9
2022-12-31T11:15:01.000Z,1000.9
2022-12-31T11:16:14.000Z,1000.9
2022-12-31T11:17:26.000Z,1001
2022-12-31T11:19:50.000Z,1001
2022-12-31T11:21:02.000Z,1000.9
2022-12-31T11:22:15.000Z,1001
2022-12-31T11:23:27.000Z,1000.9
2022-12-31T11:24:39.000Z,1001
2022-12-31T11:25:51.000Z,1001
2022-12-31T11:25:55.608Z,1000.9
2022-12-31T11:27:03.000Z,1000.9
2022-12-31T11:28:15.000Z,1000.9
2022-12-31T11:29:27.000Z,1000.9
2022-12-31T11:30:39.000Z,1001
2022-12-31T11:31:51.000Z,1001
2022-12-31T11:33:03.000Z,1001
2022-12-31T11:34:15.000Z,1001
2022-12-31T11:35:28.000Z,1001
2022-12-31T11:36:40.000Z,1001
2022-12-31T11:37:52.000Z,1001
2022-12-31T11:39:04.000Z,1001.1
2022-12-31T11:40:16.000Z,1001.1
2022-12-31T11:41:29.000Z,1001
2022-12-31T11:42:41.000Z,1001.1
2022-12-31T11:43:52.000Z,1001.1
2022-12-31T11:45:04.000Z,1001
2022-12-31T11:46:16.000Z,1000.9
2022-12-31T11:47:29.000Z,1001
2022-12-31T11:48:41.000Z,1001
2022-12-31T11:49:53.000Z,1000.9
2022-12-31T11:51:05.000Z,1001
2022-12-31T11:52:17.000Z,1000.9
2022-12-31T11:53:29.000Z,1000.9
2022-12-31T11:54:42.000Z,1001
2022-12-31T11:57:06.000Z,1001
2022-12-31T11:58:18.000Z,1000.9
2022-12-31T11:59:29.000Z,1000.9
2022-12-31T12:00:42.000Z,1001.1
2022-12-31T12:01:54.000Z,1001
2022-12-31T12:03:06.000Z,1001
2022-12-31T12:03:11.000Z,1000.9
2022-12-31T12:04:18.000Z,1001.1
2022-12-31T12:05:30.000Z,1001
2022-12-31T12:06:42.000Z,1001
2022-12-31T12:07:55.000Z,1001
2022-12-31T12:09:07.000Z,1001.1
2022-12-31T12:10:19.000Z,1001.1
2022-12-31T12:11:31.000Z,1001.1
2022-12-31T12:12:43.000Z,1001.1
2022-12-31T12:13:56.000Z,1001.2
2022-12-31T12:15:07.000Z,1001.2
2022-12-31T12:16:19.000Z,1001.2
2022-12-31T12:17:31.000Z,1001.2
2022-12-31T12:18:43.000Z,1001.2
2022-12-31T12:19:56.000Z,1001.1
2022-12-31T12:22:20.000Z,1001.2
2022-12-31T12:23:32.000Z,1001
2022-12-31T12:24:44.000Z,1000.9
2022-12-31T12:25:56.000Z,1001
2022-12-31T12:27:09.000Z,1001.1
2022-12-31T12:28:21.000Z,1001.1
2022-12-31T12:28:25.303Z,1001.1
2022-12-31T12:29:33.000Z,1001
2022-12-31T12:30:44.000Z,1001.1
2022-12-31T12:31:56.000Z,1001.2
2022-12-31T12:33:09.000Z,1001.1
2022-12-31T12:34:21.000Z,1001.2
2022-12-31T12:35:33.000Z,1001.1
2022-12-31T12:36:45.000Z,1001.1
2022-12-31T12:39:09.000Z,1001.1
2022-12-31T12:40:22.000Z,1001
2022-12-31T12:41:34.000Z,1001.1
2022-12-31T12:42:46.000Z,1001
2022-12-31T12:43:58.000Z,1001
2022-12-31T12:45:10.000Z,1000.9
2022-12-31T12:45:14.000Z,1001
2022-12-31T12:46:22.000Z,1001
2022-12-31T12:47:34.000Z,1000.9
2022-12-31T12:48:46.000Z,1000.9
2022-12-31T12:49:58.000Z,1000.9
2022-12-31T12:52:23.000Z,1000.9
2022-12-31T12:53:35.000Z,1001
2022-12-31T12:54:47.000Z,1000.9
2022-12-31T12:55:59.000Z,1000.9
2022-12-31T12:57:11.000Z,1000.9
2022-12-31T12:58:27.949Z,1000.9
2022-12-31T12:59:36.000Z,1000.9
2022-12-31T13:01:59.000Z,1000.9
2022-12-31T13:03:11.000Z,1000.9
2022-12-31T13:04:23.000Z,1000.9
2022-12-31T13:05:36.000Z,1000.9
2022-12-31T13:05:41.069Z,1000.9
2022-12-31T13:06:48.000Z,1000.9
2022-12-31T13:08:00.000Z,1000.8
2022-12-31T13:08:05.000Z,1000.9
2022-12-31T13:09:12.000Z,1000.8
2022-12-31T13:10:24.000Z,1001
2022-12-31T13:11:36.000Z,1001
2022-12-31T13:12:49.000Z,1001
2022-12-31T13:14:01.000Z,1001
2022-12-31T13:15:13.000Z,1000.9
2022-12-31T13:16:25.000Z,1001
2022-12-31T13:17:36.000Z,1001
2022-12-31T13:18:49.000Z,1001.1
2022-12-31T13:20:01.000Z,1001.1
2022-12-31T13:21:13.000Z,1000.9
2022-12-31T13:22:25.000Z,1001
2022-12-31T13:23:37.000Z,1001.2
2022-12-31T13:24:50.000Z,1001.3
2022-12-31T13:26:02.000Z,1001.2
2022-12-31T13:27:14.000Z,1001.3
2022-12-31T13:28:26.000Z,1001.2
2022-12-31T13:29:38.000Z,1001.2
2022-12-31T13:30:50.000Z,1001.3
2022-12-31T13:32:03.000Z,1001.4
2022-12-31T13:33:14.000Z,1001.4
2022-12-31T13:34:26.000Z,1001.3
2022-12-31T13:36:50.000Z,1001.5
2022-12-31T13:38:03.000Z,1001.4
2022-12-31T13:39:15.000Z,1001.4
2022-12-31T13:40:27.000Z,1001.4
2022-12-31T13:41:39.000Z,1001.5
2022-12-31T13:42:51.000Z,1001.5
2022-12-31T13:42:55.846Z,1001.4
2022-12-31T13:44:03.000Z,1001.6
2022-12-31T13:45:16.000Z,1001.6
2022-12-31T13:46:28.000Z,1001.7
2022-12-31T13:47:40.000Z,1001.7
2022-12-31T13:48:51.000Z,1001.8
2022-12-31T13:50:03.000Z,1001.8
2022-12-31T13:51:16.000Z,1001.8
2022-12-31T13:52:28.000Z,1001.8
2022-12-31T13:53:40.000Z,1001.9
2022-12-31T13:54:52.000Z,1001.8
2022-12-31T13:56:04.000Z,1001.8
2022-12-31T13:57:17.000Z,1001.8
2022-12-31T13:58:29.000Z,1001.9
2022-12-31T13:59:41.000Z,1001.8
2022-12-31T14:02:05.000Z,1001.7
2022-12-31T14:03:17.000Z,1001.8
2022-12-31T14:04:29.000Z,1001.7
2022-12-31T14:05:41.000Z,1001.8
2022-12-31T14:06:53.000Z,1001.8
2022-12-31T14:08:05.000Z,1001.8
2022-12-31T14:08:10.745Z,1001.8
2022-12-31T14:09:17.000Z,1001.9
2022-12-31T14:10:30.000Z,1001.8
2022-12-31T14:11:42.000Z,1001.8
2022-12-31T14:12:54.000Z,1001.9
2022-12-31T14:14:06.000Z,1001.9
2022-12-31T14:15:18.000Z,1002
2022-12-31T14:16:31.000Z,1001.8
2022-12-31T14:17:43.000Z,1001.9
2022-12-31T14:18:55.000Z,1001.8
2022-12-31T14:20:06.000Z,1001.8
2022-12-31T14:21:18.000Z,1001.8
2022-12-31T14:22:30.000Z,1001.9
2022-12-31T14:23:43.000Z,1001.9
2022-12-31T14:24:55.000Z,1001.9
2022-12-31T14:26:07.000Z,1002
2022-12-31T14:27:18.000Z,1002.1
2022-12-31T14:28:30.000Z,1002
2022-12-31T14:29:43.000Z,1001.9
2022-12-31T14:30:55.000Z,1001.9
2022-12-31T14:32:07.000Z,1001.9
2022-12-31T14:33:19.000Z,1001.9
2022-12-31T14:34:31.000Z,1001.8
2022-12-31T14:36:56.000Z,1001.9
2022-12-31T14:38:08.000Z,1001.9
2022-12-31T14:39:20.000Z,1001.9
2022-12-31T14:40:32.000Z,1001.9
2022-12-31T14:41:44.000Z,1001.8
2022-12-31T14:43:01.169Z,1001.9
2022-12-31T14:44:08.000Z,1001.8
2022-12-31T14:45:20.000Z,1001.8
2022-12-31T14:46:32.000Z,1001.8
2022-12-31T14:47:44.000Z,1001.7
2022-12-31T14:48:57.000Z,1001.9
2022-12-31T14:50:09.000Z,1001.8
2022-12-31T14:50:13.296Z,1001.9
2022-12-31T14:51:21.000Z,1001.9
2022-12-31T14:52:33.000Z,1001.9
2022-12-31T14:53:45.000Z,1001.8
2022-12-31T14:54:57.000Z,1002
2022-12-31T14:56:10.000Z,1002.1
2022-12-31T14:57:22.000Z,1002
2022-12-31T14:58:33.000Z,1002
2022-12-31T14:59:45.000Z,1002.1
2022-12-31T15:00:57.000Z,1002.1
2022-12-31T15:02:10.000Z,1002.1
2022-12-31T15:03:22.000Z,1002.2
2022-12-31T15:04:34.000Z,1002.2
2022-12-31T15:05:46.000Z,1002.1
2022-12-31T15:06:58.000Z,1002.2
2022-12-31T15:08:10.000Z,1002.2
2022-12-31T15:09:23.000Z,1002.2
2022-12-31T15:10:35.000Z,1002.2
2022-12-31T15:11:47.000Z,1002.1
2022-12-31T15:12:59.000Z,1002.1
2022-12-31T15:14:10.000Z,1002.1
2022-12-31T15:15:23.000Z,1002.1
2022-12-31T15:16:35.000Z,1002.1
2022-12-31T15:17:47.000Z,1002.2
2022-12-31T15:18:59.000Z,1002.1
2022-12-31T15:20:11.000Z,1002.1